Time;durP1;ratioP1;P1;durP2;ratioP2;P2;SDS_P1;SDS_P2;PMS_P1;PMS_P2;Temp;Humidity;BMP_temperature;BMP_pressure;BME280_temperature;BME280_humidity;BME280_pressure;Samples;Min_cycle;Max_cycle;Signal;HPM_P1;HPM_P2
2024/04/08 00:00:51;;;;;;;;;;;;;;;11.88;100.00;100720.59;5074261;28;20007;-75
2024/04/08 00:03:16;;;;;;;;;;;;;;;12.06;100.00;100721.84;5073133;28;20369;-74
2024/04/08 00:05:42;;;;;;;;;;;;;;;12.09;100.00;100724.13;5073809;28;19920;-75
2024/04/08 00:08:10;;;;;;;;;;;;;;;12.08;100.00;100725.19;5073203;28;19963;-74
2024/04/08 00:10:35;;;;;;;;;;;;;;;12.09;100.00;100716.84;5072735;28;19998;-75
2024/04/08 00:13:01;;;;;;;;;;;;;;;12.06;100.00;100724.56;5072626;28;19916;-75
2024/04/08 00:15:26;;;;;;;;;;;;;;;12.18;100.00;100730.94;5074458;28;20419;-74
2024/04/08 00:17:51;;;;;;;;;;;;;;;12.12;100.00;100729.94;5072732;28;20354;-75
2024/04/08 00:20:19;;;;;;;;;;;;;;;12.04;100.00;100735.56;5072951;28;19998;-75
2024/04/08 00:22:46;;;;;;;;;;;;;;;12.20;100.00;100738.84;5077273;28;19916;-75
2024/04/08 00:25:11;;;;;;;;;;;;;;;12.22;100.00;100734.91;5073393;28;19912;-75
2024/04/08 00:27:39;;;;;;;;;;;;;;;12.21;100.00;100733.25;5072916;28;19939;-75
2024/04/08 00:30:05;;;;;;;;;;;;;;;12.24;100.00;100740.91;5074490;28;19916;-75
2024/04/08 00:32:30;;;;;;;;;;;;;;;12.21;100.00;100732.44;5071776;28;19917;-75
2024/04/08 00:34:55;;;;;;;;;;;;;;;12.31;100.00;100734.69;5072900;28;20351;-75
2024/04/08 00:37:21;;;;;;;;;;;;;;;12.27;100.00;100735.09;5073665;28;19920;-74
2024/04/08 00:39:46;;;;;;;;;;;;;;;12.35;100.00;100730.53;5072349;28;19978;-75
2024/04/08 00:42:11;;;;;;;;;;;;;;;12.33;100.00;100738.81;5073093;28;19924;-75
2024/04/08 00:44:36;;;;;;;;;;;;;;;12.32;100.00;100747.16;5072609;28;19923;-75
2024/04/08 00:47:01;;;;;;;;;;;;;;;12.35;100.00;100769.13;5070627;28;19920;-76
2024/04/08 00:49:29;;;;;;;;;;;;;;;12.28;100.00;100771.84;5072462;28;19923;-75
2024/04/08 00:51:55;;;;;;;;;;;;;;;12.26;100.00;100762.31;5072796;28;19961;-75
2024/04/08 00:54:21;;;;;;;;;;;;;;;12.18;100.00;100752.53;5072765;28;19920;-74
2024/04/08 00:56:46;;;;;;;;;;;;;;;12.03;100.00;100727.66;5072128;28;19916;-75
2024/04/08 00:59:14;;;;;;;;;;;;;;;12.08;100.00;100730.56;5064124;28;19920;-74
2024/04/08 01:01:40;;;;;;;;;;;;;;;12.11;100.00;100735.56;5072834;28;20027;-75
2024/04/08 01:04:06;;;;;;;;;;;;;;;12.11;100.00;100736.38;5072411;28;20015;-75
2024/04/08 01:06:31;;;;;;;;;;;;;;;12.09;100.00;100735.75;5071726;28;19992;-74
2024/04/08 01:08:57;;;;;;;;;;;;;;;12.07;100.00;100739.69;5071809;28;20319;-75
2024/04/08 01:11:22;;;;;;;;;;;;;;;12.03;100.00;100738.47;5054220;28;20355;-75
2024/04/08 01:13:47;;;;;;;;;;;;;;;12.07;100.00;100742.41;5072241;28;19919;-74
2024/04/08 01:16:13;;;;;;;;;;;;;;;12.03;100.00;100749.25;5072777;28;19916;-75
2024/04/08 01:18:38;;;;;;;;;;;;;;;12.05;100.00;100741.78;5071824;28;19916;-73
2024/04/08 01:21:03;;;;;;;;;;;;;;;11.98;100.00;100742.63;5071786;28;19958;-73
2024/04/08 01:23:29;;;;;;;;;;;;;;;11.96;100.00;100746.53;5071928;28;19917;-73
2024/04/08 01:25:55;;;;;;;;;;;;;;;11.89;100.00;100749.22;5071426;28;20261;-73
2024/04/08 01:28:20;;;;;;;;;;;;;;;11.96;100.00;100746.53;5071111;28;20041;-73
2024/04/08 01:30:46;;;;;;;;;;;;;;;12.02;100.00;100747.59;5072292;28;20284;-74
2024/04/08 01:33:12;;;;;;;;;;;;;;;11.95;100.00;100737.63;5066205;28;19920;-74
2024/04/08 01:35:37;;;;;;;;;;;;;;;11.95;100.00;100729.53;5071582;28;19923;-75
2024/04/08 01:38:02;;;;;;;;;;;;;;;11.95;100.00;100721.44;5072510;28;19920;-74
2024/04/08 01:40:27;;;;;;;;;;;;;;;11.82;100.00;100713.38;5071923;28;19939;-74
2024/04/08 01:42:55;;;;;;;;;;;;;;;11.71;100.00;100705.88;5071324;28;19916;-74
2024/04/08 01:45:20;;;;;;;;;;;;;;;11.67;100.00;100709.00;5072160;28;20382;-74
2024/04/08 01:47:46;;;;;;;;;;;;;;;11.76;100.00;100706.91;5070354;28;19920;-74
2024/04/08 01:50:11;;;;;;;;;;;;;;;11.72;100.00;100694.91;5071622;28;19923;-75
2024/04/08 01:52:36;;;;;;;;;;;;;;;11.77;100.00;100702.38;5072074;28;19916;-74
2024/04/08 01:55:03;;;;;;;;;;;;;;;11.68;100.00;100697.16;5070603;28;20390;-75
2024/04/08 01:57:28;;;;;;;;;;;;;;;11.74;100.00;100692.81;5071503;28;19920;-75
2024/04/08 01:59:53;;;;;;;;;;;;;;;11.69;100.00;100695.31;5071889;28;20311;-74
2024/04/08 02:02:18;;;;;;;;;;;;;;;11.64;100.00;100687.00;5070940;28;20296;-74
2024/04/08 02:04:44;;;;;;;;;;;;;;;11.64;100.00;100682.47;5071551;28;20527;-74
2024/04/08 02:07:09;;;;;;;;;;;;;;;11.55;100.00;100681.00;5071660;28;19927;-75
2024/04/08 02:09:34;;;;;;;;;;;;;;;11.64;100.00;100685.16;5069746;28;19924;-74
2024/04/08 02:12:01;;;;;;;;;;;;;;;11.58;100.00;100677.91;5070920;28;20359;-75
2024/04/08 02:14:29;;;;;;;;;;;;;;;11.47;100.00;100673.94;5072287;28;19917;-75
2024/04/08 02:16:54;;;;;;;;;;;;;;;11.39;100.00;100668.75;5070380;28;19916;-74
2024/04/08 02:19:20;;;;;;;;;;;;;;;11.32;100.00;100667.94;5067725;28;20023;-74
2024/04/08 02:21:48;;;;;;;;;;;;;;;11.28;100.00;100664.84;5038916;28;19917;-74
2024/04/08 02:24:13;;;;;;;;;;;;;;;11.26;100.00;100669.59;5063390;28;19921;-74
2024/04/08 02:26:38;;;;;;;;;;;;;;;11.25;100.00;100665.25;5070576;28;19927;-74
2024/04/08 02:29:04;;;;;;;;;;;;;;;11.24;100.00;100650.09;5071517;28;19917;-74
2024/04/08 02:31:29;;;;;;;;;;;;;;;11.20;100.00;100649.69;5070704;28;19916;-74
2024/04/08 02:33:54;;;;;;;;;;;;;;;11.21;100.00;100653.22;5073328;28;19920;-74
2024/04/08 02:36:19;;;;;;;;;;;;;;;11.22;100.00;100657.56;5076900;28;19962;-74
2024/04/08 02:38:45;;;;;;;;;;;;;;;11.29;100.00;100663.81;5069525;28;19920;-73
2024/04/08 02:41:10;;;;;;;;;;;;;;;11.43;100.00;100658.41;5070917;28;19923;-74
2024/04/08 02:43:38;;;;;;;;;;;;;;;11.45;100.00;100650.94;5071929;28;20015;-73
2024/04/08 02:46:03;;;;;;;;;;;;;;;11.40;100.00;100656.13;5070202;28;19916;-73
2024/04/08 02:48:29;;;;;;;;;;;;;;;11.34;100.00;100641.63;5070592;28;20007;-73
2024/04/08 02:50:54;;;;;;;;;;;;;;;11.27;100.00;100633.53;5071727;28;19971;-72
2024/04/08 02:53:19;;;;;;;;;;;;;;;11.23;100.00;100632.28;5069728;28;19924;-73
2024/04/08 02:55:44;;;;;;;;;;;;;;;11.18;100.00;100632.06;5070452;28;19959;-74
2024/04/08 02:58:10;;;;;;;;;;;;;;;11.18;100.00;100624.81;5070387;28;19917;-72
2024/04/08 03:00:38;;;;;;;;;;;;;;;11.19;100.00;100614.88;5070543;28;19921;-74
2024/04/08 03:03:04;;;;;;;;;;;;;;;11.13;100.00;100599.50;5070731;28;19920;-74
2024/04/08 03:05:29;;;;;;;;;;;;;;;11.13;100.00;100603.06;5070659;28;19950;-73
2024/04/08 03:07:54;;;;;;;;;;;;;;;11.13;100.00;100602.22;5070414;28;19917;-74
2024/04/08 03:10:20;;;;;;;;;;;;;;;11.11;100.00;100607.00;5070660;28;19916;-72
2024/04/08 03:12:45;;;;;;;;;;;;;;;11.12;100.00;100595.19;5070482;28;19916;-71
2024/04/08 03:15:10;;;;;;;;;;;;;;;11.05;100.00;100604.09;5071237;28;19967;-72
2024/04/08 03:17:35;;;;;;;;;;;;;;;11.03;100.00;100610.72;5070068;28;19916;-72
2024/04/08 03:20:01;;;;;;;;;;;;;;;11.02;100.00;100609.06;5070118;28;20364;-72
2024/04/08 03:22:26;;;;;;;;;;;;;;;11.09;100.00;100593.72;5071245;28;20364;-73
2024/04/08 03:24:52;;;;;;;;;;;;;;;11.14;100.00;100587.69;5070484;28;19916;-72
2024/04/08 03:27:17;;;;;;;;;;;;;;;11.15;100.00;100576.72;5069559;28;19978;-72
2024/04/08 03:29:42;;;;;;;;;;;;;;;11.16;100.00;100580.25;5070725;28;20031;-73
2024/04/08 03:32:07;;;;;;;;;;;;;;;11.15;100.00;100575.88;5069865;28;20009;-72
2024/04/08 03:34:34;;;;;;;;;;;;;;;11.05;100.00;100587.06;5070030;28;19916;-74
2024/04/08 03:36:59;;;;;;;;;;;;;;;11.09;100.00;100592.91;5070721;28;19923;-73
2024/04/08 03:39:24;;;;;;;;;;;;;;;11.18;100.00;100599.72;5069960;28;19917;-73
2024/04/08 03:41:50;;;;;;;;;;;;;;;11.31;100.00;100599.72;5069492;28;20062;-73
2024/04/08 03:44:15;;;;;;;;;;;;;;;11.34;100.00;100606.56;5070993;28;19943;-73
2024/04/08 03:46:40;;;;;;;;;;;;;;;11.37;100.00;100609.69;5069696;28;19924;-73
2024/04/08 03:49:06;;;;;;;;;;;;;;;11.36;100.00;100610.72;5072635;28;19917;-73
2024/04/08 03:51:31;;;;;;;;;;;;;;;11.42;100.00;100616.31;5074718;28;19919;-73
2024/04/08 03:53:59;;;;;;;;;;;;;;;11.44;100.00;100616.94;5074063;28;19919;-75
2024/04/08 03:56:24;;;;;;;;;;;;;;;11.40;100.00;100615.69;5064559;28;20336;-75
2024/04/08 03:58:50;;;;;;;;;;;;;;;11.33;100.00;100611.13;5074702;28;19996;-75
2024/04/08 04:01:15;;;;;;;;;;;;;;;11.35;100.00;100617.13;5073392;28;20334;-76
2024/04/08 04:03:40;;;;;;;;;;;;;;;11.30;100.00;100614.22;5073054;28;19970;-73
2024/04/08 04:06:07;;;;;;;;;;;;;;;11.46;100.00;100609.47;5075285;28;19912;-76
2024/04/08 04:08:32;;;;;;;;;;;;;;;11.51;100.00;100606.97;5054406;28;20431;-72
2024/04/08 04:10:58;;;;;;;;;;;;;;;11.56;100.00;100617.97;5072058;28;19923;-73
2024/04/08 04:13:23;;;;;;;;;;;;;;;11.36;100.00;100624.19;5074970;28;19962;-73
2024/04/08 04:15:48;;;;;;;;;;;;;;;11.29;100.00;100623.38;5071999;28;19916;-72
2024/04/08 04:18:13;;;;;;;;;;;;;;;11.22;100.00;100620.66;5073295;28;19923;-72
2024/04/08 04:20:40;;;;;;;;;;;;;;;11.13;100.00;100621.91;5074473;28;20003;-73
2024/04/08 04:23:09;;;;;;;;;;;;;;;11.13;100.00;100610.28;5072829;28;20000;-73
2024/04/08 04:25:35;;;;;;;;;;;;;;;11.07;100.00;100615.50;5073058;28;20359;-72
2024/04/08 04:28:00;;;;;;;;;;;;;;;11.01;100.00;100608.22;5074507;28;19916;-73
2024/04/08 04:30:26;;;;;;;;;;;;;;;10.98;100.00;100603.25;5072159;28;19923;-73
2024/04/08 04:32:51;;;;;;;;;;;;;;;11.05;100.00;100609.47;5073165;28;20387;-73
2024/04/08 04:35:16;;;;;;;;;;;;;;;11.07;100.00;100615.50;5074486;28;19916;-73
2024/04/08 04:37:42;;;;;;;;;;;;;;;11.07;100.00;100606.56;5072696;28;19924;-73
2024/04/08 04:40:08;;;;;;;;;;;;;;;11.13;100.00;100604.91;5073336;28;19916;-73
2024/04/08 04:42:37;;;;;;;;;;;;;;;11.05;100.00;100598.69;5074485;28;20249;-73
2024/04/08 04:45:04;;;;;;;;;;;;;;;11.07;100.00;100596.63;5074516;28;20348;-73
2024/04/08 04:47:35;;;;;;;;;;;;;;;11.03;100.00;100595.38;5092684;28;19904;-73
2024/04/08 04:50:01;;;;;;;;;;;;;;;11.01;100.00;100589.38;5095360;28;19908;-73
2024/04/08 04:52:27;;;;;;;;;;;;;;;11.02;100.00;100582.94;5094299;28;19907;-73
2024/04/08 04:54:53;;;;;;;;;;;;;;;11.00;100.00;100562.66;5095239;28;19920;-73
2024/04/08 04:57:18;;;;;;;;;;;;;;;10.99;100.00;100550.22;5081709;28;20245;-73
2024/04/08 04:59:43;;;;;;;;;;;;;;;10.94;100.00;100550.84;5076039;28;20383;-73
2024/04/08 05:02:08;;;;;;;;;;;;;;;10.95;100.00;100552.47;5075035;28;20376;-74
2024/04/08 05:04:34;;;;;;;;;;;;;;;10.94;100.00;100558.94;5074106;28;19924;-73
2024/04/08 05:07:02;;;;;;;;;;;;;;;10.99;100.00;100561.81;5073675;28;20364;-73
2024/04/08 05:09:27;;;;;;;;;;;;;;;10.98;100.00;100567.41;5072648;28;19928;-73
2024/04/08 05:11:53;;;;;;;;;;;;;;;11.01;100.00;100567.00;5072616;28;20477;-73
2024/04/08 05:14:18;;;;;;;;;;;;;;;11.00;100.00;100563.47;5072846;28;19917;-73
2024/04/08 05:16:44;;;;;;;;;;;;;;;11.02;100.00;100561.41;5072175;28;19915;-73
2024/04/08 05:19:09;;;;;;;;;;;;;;;11.05;100.00;100563.69;5072023;28;19916;-72
2024/04/08 05:21:37;;;;;;;;;;;;;;;11.07;100.00;100575.09;5072653;28;19920;-72
2024/04/08 05:24:02;;;;;;;;;;;;;;;11.13;100.00;100575.25;5072323;28;19912;-72
2024/04/08 05:26:27;;;;;;;;;;;;;;;11.15;100.00;100576.72;5071989;28;19912;-73
2024/04/08 05:28:52;;;;;;;;;;;;;;;11.23;100.00;100573.00;5072536;28;20029;-73
2024/04/08 05:31:18;;;;;;;;;;;;;;;11.34;100.00;100564.28;5071446;28;20383;-72
2024/04/08 05:33:43;;;;;;;;;;;;;;;11.38;100.00;100553.94;5071141;28;20382;-72
2024/04/08 05:36:08;;;;;;;;;;;;;;;11.34;100.00;100547.28;5072401;28;19955;-72
2024/04/08 05:38:33;;;;;;;;;;;;;;;11.34;100.00;100558.06;5071859;28;19931;-74
2024/04/08 05:41:04;;;;;;;;;;;;;;;11.26;100.00;100551.03;5071323;28;20287;-74
2024/04/08 05:43:31;;;;;;;;;;;;;;;11.23;100.00;100551.44;5072728;28;19912;-73
2024/04/08 05:45:56;;;;;;;;;;;;;;;11.25;100.00;100565.53;5071248;28;19948;-74
2024/04/08 05:48:21;;;;;;;;;;;;;;;11.21;100.00;100575.88;5071103;28;20410;-74
2024/04/08 05:50:48;;;;;;;;;;;;;;;11.30;100.00;100584.59;5072092;28;20532;-75
2024/04/08 05:53:13;;;;;;;;;;;;;;;11.40;100.00;100586.03;5071730;28;19960;-74
2024/04/08 05:55:41;;;;;;;;;;;;;;;11.58;100.00;100588.06;5070858;28;20608;-73
2024/04/08 05:58:07;;;;;;;;;;;;;;;11.70;100.00;100593.66;5072258;28;20027;-74
2024/04/08 06:00:35;;;;;;;;;;;;;;;11.82;100.00;100592.00;5071385;28;19926;-74
2024/04/08 06:03:00;;;;;;;;;;;;;;;11.84;100.00;100603.38;5070110;28;19969;-73
2024/04/08 06:05:26;;;;;;;;;;;;;;;11.88;100.00;100617.28;5072030;28;20016;-73
2024/04/08 06:07:53;;;;;;;;;;;;;;;11.91;100.00;100628.47;5070183;28;20343;-72
2024/04/08 06:10:19;;;;;;;;;;;;;;;11.93;100.00;100636.34;5070752;28;19923;-74
2024/04/08 06:12:45;;;;;;;;;;;;;;;11.91;100.00;100628.47;5072195;28;19912;-73
2024/04/08 06:15:10;;;;;;;;;;;;;;;11.91;100.00;100627.66;5070341;28;19976;-73
2024/04/08 06:17:35;;;;;;;;;;;;;;;11.74;100.00;100620.00;5071244;28;20283;-73
2024/04/08 06:20:01;;;;;;;;;;;;;;;11.75;100.00;100626.22;5071712;28;20352;-73
2024/04/08 06:22:27;;;;;;;;;;;;;;;11.79;100.00;100622.88;5070450;28;19972;-73
2024/04/08 06:24:52;;;;;;;;;;;;;;;11.67;100.00;100620.00;5071344;28;19974;-73
2024/04/08 06:27:17;;;;;;;;;;;;;;;11.76;100.00;100635.97;5072352;28;20011;-72
2024/04/08 06:29:43;;;;;;;;;;;;;;;11.75;100.00;100634.31;5070195;28;19925;-72
2024/04/08 06:32:08;;;;;;;;;;;;;;;11.75;100.00;100626.22;5070863;28;19923;-73
2024/04/08 06:34:33;;;;;;;;;;;;;;;11.65;100.00;100622.06;5072354;28;19919;-72
2024/04/08 06:36:58;;;;;;;;;;;;;;;11.65;100.00;100586.22;5070175;28;19928;-72
2024/04/08 06:39:26;;;;;;;;;;;;;;;11.62;100.00;100584.78;5071410;28;19909;-73
2024/04/08 06:41:51;;;;;;;;;;;;;;;11.68;100.00;100580.41;5071573;28;19917;-73
2024/04/08 06:44:17;;;;;;;;;;;;;;;11.85;100.00;100586.16;5070239;28;19912;-73
2024/04/08 06:46:42;;;;;;;;;;;;;;;12.10;100.00;100599.78;5070734;28;19923;-73
2024/04/08 06:49:09;;;;;;;;;;;;;;;12.48;100.00;100594.66;5071538;28;20015;-73
2024/04/08 06:51:34;;;;;;;;;;;;;;;12.63;100.00;100580.84;5070340;28;19912;-73
2024/04/08 06:53:59;;;;;;;;;;;;;;;12.92;100.00;100589.38;5071262;28;19916;-73
2024/04/08 06:56:25;;;;;;;;;;;;;;;13.42;100.00;100592.13;5071821;28;20019;-74
2024/04/08 06:58:50;;;;;;;;;;;;;;;14.22;100.00;100597.72;5071114;28;19939;-73
2024/04/08 07:01:16;;;;;;;;;;;;;;;15.38;100.00;100622.94;5070311;28;19912;-73
2024/04/08 07:03:41;;;;;;;;;;;;;;;16.08;99.76;100617.75;5071213;28;19920;-73
2024/04/08 07:06:07;;;;;;;;;;;;;;;16.62;95.87;100620.16;5070082;28;19995;-74
2024/04/08 07:08:32;;;;;;;;;;;;;;;16.68;90.48;100614.56;5069718;28;19916;-73
2024/04/08 07:10:57;;;;;;;;;;;;;;;17.16;90.86;100613.50;5071472;28;19920;-73
2024/04/08 07:13:23;;;;;;;;;;;;;;;17.65;87.96;100608.25;5070820;28;19923;-73
2024/04/08 07:15:55;;;;;;;;;;;;;;;17.67;84.00;100611.56;5070920;28;19912;-73
2024/04/08 07:18:23;;;;;;;;;;;;;;;18.18;83.33;100629.69;5070516;28;20449;-73
2024/04/08 07:20:48;;;;;;;;;;;;;;;18.93;76.51;100637.31;5071371;28;19919;-73
2024/04/08 07:23:14;;;;;;;;;;;;;;;19.20;75.81;100636.50;5073257;28;19912;-73
2024/04/08 07:25:39;;;;;;;;;;;;;;;18.87;75.30;100639.19;5074287;28;19912;-73
2024/04/08 07:28:04;;;;;;;;;;;;;;;19.20;71.21;100637.31;5074556;28;19920;-73
2024/04/08 07:30:29;;;;;;;;;;;;;;;19.94;70.07;100639.50;5074267;28;19912;-73
2024/04/08 07:32:55;;;;;;;;;;;;;;;20.29;64.44;100638.81;5074368;28;19916;-73
2024/04/08 07:35:20;;;;;;;;;;;;;;;20.49;67.17;100639.97;5074572;28;20444;-73
2024/04/08 07:37:47;;;;;;;;;;;;;;;20.80;65.89;100629.13;5074167;28;19920;-73
2024/04/08 07:40:12;;;;;;;;;;;;;;;21.69;60.94;100632.69;5074052;28;20372;-72
2024/04/08 07:42:38;;;;;;;;;;;;;;;22.45;54.99;100649.97;5075024;28;19959;-72
2024/04/08 07:45:03;;;;;;;;;;;;;;;21.65;54.79;100657.06;5074382;28;20008;-72
2024/04/08 07:47:28;;;;;;;;;;;;;;;20.94;59.48;100656.78;5073989;28;19912;-72
2024/04/08 07:49:56;;;;;;;;;;;;;;;19.37;66.91;100647.28;5074498;28;19981;-71
2024/04/08 07:52:21;;;;;;;;;;;;;;;19.57;65.16;100638.41;5073794;28;19924;-71
2024/04/08 07:54:46;;;;;;;;;;;;;;;19.21;67.29;100628.06;5073504;28;19916;-73
2024/04/08 07:57:11;;;;;;;;;;;;;;;17.74;73.96;100611.38;5074793;28;20263;-74
2024/04/08 07:59:37;;;;;;;;;;;;;;;18.09;78.81;100612.16;5073918;28;20291;-73
2024/04/08 08:02:02;;;;;;;;;;;;;;;17.71;79.71;100623.59;5073399;28;20279;-74
2024/04/08 08:04:30;;;;;;;;;;;;;;;18.58;69.95;100619.53;5075124;28;20287;-74
2024/04/08 08:06:55;;;;;;;;;;;;;;;19.06;65.96;100620.56;5074003;28;19916;-73
2024/04/08 08:09:21;;;;;;;;;;;;;;;19.09;67.44;100616.47;5073407;28;20312;-73
2024/04/08 08:11:46;;;;;;;;;;;;;;;18.96;66.88;100612.28;5074705;28;19920;-73
2024/04/08 08:14:11;;;;;;;;;;;;;;;19.51;68.98;100615.72;5073229;28;20404;-73
2024/04/08 08:16:37;;;;;;;;;;;;;;;20.52;67.07;100616.72;5072856;28;20364;-74
2024/04/08 08:19:02;;;;;;;;;;;;;;;21.08;58.61;100615.19;5074987;28;20427;-74
2024/04/08 08:21:27;;;;;;;;;;;;;;;21.94;56.59;100607.94;5073194;28;19916;-74
2024/04/08 08:23:53;;;;;;;;;;;;;;;22.02;56.63;100608.47;5073026;28;19965;-72
2024/04/08 08:26:18;;;;;;;;;;;;;;;22.25;57.76;100601.53;5074682;28;19999;-72
2024/04/08 08:28:45;;;;;;;;;;;;;;;22.07;53.21;100594.72;5072351;28;19916;-72
2024/04/08 08:31:10;;;;;;;;;;;;;;;22.20;52.75;100599.63;5073179;28;20069;-72
2024/04/08 08:33:36;;;;;;;;;;;;;;;22.62;52.83;100588.44;5073273;28;20323;-72
2024/04/08 08:36:01;;;;;;;;;;;;;;;22.98;51.08;100586.25;5072206;28;19927;-72
2024/04/08 08:38:26;;;;;;;;;;;;;;;22.52;52.65;100576.44;5073309;28;19912;-72
2024/04/08 08:40:58;;;;;;;;;;;;;;;22.52;51.25;100573.69;5074016;28;19912;-72
2024/04/08 08:43:25;;;;;;;;;;;;;;;22.89;55.33;100573.44;5054676;28;19927;-72
2024/04/08 08:45:51;;;;;;;;;;;;;;;23.08;54.74;100577.09;5072899;28;19915;-72
2024/04/08 08:48:16;;;;;;;;;;;;;;;23.24;50.96;100566.00;5074097;28;20473;-72
2024/04/08 08:50:44;;;;;;;;;;;;;;;24.11;48.05;100557.91;5072421;28;20015;-73
2024/04/08 08:53:10;;;;;;;;;;;;;;;23.90;46.37;100555.38;5072049;28;19935;-72
2024/04/08 08:55:36;;;;;;;;;;;;;;;24.09;47.00;100557.38;5072987;28;19956;-72
2024/04/08 08:58:02;;;;;;;;;;;;;;;25.06;45.77;100551.50;5071544;28;19919;-72
2024/04/08 09:00:27;;;;;;;;;;;;;;;25.49;42.93;100536.69;5053552;28;19917;-72
2024/04/08 09:02:52;;;;;;;;;;;;;;;24.02;46.96;100530.25;5055105;28;20299;-72
2024/04/08 09:05:17;;;;;;;;;;;;;;;24.16;49.13;100533.09;5072591;28;20284;-72
2024/04/08 09:07:42;;;;;;;;;;;;;;;24.51;49.04;100533.66;5073885;28;20299;-73
2024/04/08 09:10:08;;;;;;;;;;;;;;;23.68;47.88;100548.50;5074299;28;20287;-72
2024/04/08 09:12:33;;;;;;;;;;;;;;;23.89;46.12;100561.97;5072271;28;19912;-73
2024/04/08 09:14:58;;;;;;;;;;;;;;;22.93;48.67;100566.25;5070650;28;19916;-73
2024/04/08 09:17:23;;;;;;;;;;;;;;;24.43;46.77;100572.84;5073128;28;19916;-73
2024/04/08 09:19:49;;;;;;;;;;;;;;;24.40;46.00;100578.94;5070936;28;20360;-73
2024/04/08 09:22:20;;;;;;;;;;;;;;;25.75;41.76;100567.31;5072546;28;19927;-72
2024/04/08 09:24:45;;;;;;;;;;;;;;;24.87;44.22;100559.81;5072538;28;19999;-73
2024/04/08 09:27:10;;;;;;;;;;;;;;;24.42;46.34;100568.47;5036444;28;20412;-73
2024/04/08 09:29:36;;;;;;;;;;;;;;;24.26;46.16;100563.19;5052485;28;19939;-72
2024/04/08 09:32:01;;;;;;;;;;;;;;;24.77;48.02;100563.53;5058406;28;19938;-72
2024/04/08 09:34:30;;;;;;;;;;;;;;;24.32;46.00;100567.50;5067652;28;20013;-72
2024/04/08 09:36:55;;;;;;;;;;;;;;;26.25;42.63;100574.81;5058670;28;19920;-72
2024/04/08 09:39:20;;;;;;;;;;;;;;;27.83;37.54;100580.56;5070967;28;20071;-72
2024/04/08 09:43:09;;;;;;;;;;;;;;;26.74;40.79;100569.56;5511982;25;19995;-75
2024/04/08 09:45:37;;;;;;;;;;;;;;;25.54;43.26;100553.94;5505121;25;19991;-75
2024/04/08 09:48:03;;;;;;;;;;;;;;;26.08;41.30;100547.03;5485533;25;19961;-74
2024/04/08 09:50:28;;;;;;;;;;;;;;;25.80;41.69;100558.13;5502762;26;20243;-72
2024/04/08 09:52:54;;;;;;;;;;;;;;;26.21;40.86;100573.00;5505281;26;20319;-73
2024/04/08 09:55:20;;;;;;;;;;;;;;;27.51;38.89;100594.44;5480436;25;19928;-73
2024/04/08 09:57:47;;;;;;;;;;;;;;;27.14;39.51;100601.22;5496867;26;19935;-73
2024/04/08 10:00:15;;;;;;;;;;;;;;;25.38;42.12;100574.63;5497599;25;19928;-74
2024/04/08 10:02:42;;;;;;;;;;;;;;;25.13;42.95;100572.03;5478324;26;19935;-73
2024/04/08 10:05:07;;;;;;;;;;;;;;;24.63;45.70;100579.97;5505569;25;20007;-74
2024/04/08 10:07:32;;;;;;;;;;;;;;;25.40;43.91;100588.91;5503259;25;19936;-74
2024/04/08 10:10:02;;;;;;;;;;;;;;;24.93;44.86;100591.66;5478196;26;20351;-74
2024/04/08 10:12:33;;;;;;;;;;;;;;;23.59;47.79;100572.25;5503931;25;19935;-73
2024/04/08 10:15:11;;;;;;;;;;;;;;;22.82;51.69;100555.34;5500346;25;19934;-73
2024/04/08 10:17:36;;;;;;;;;;;;;;;22.36;52.02;100552.94;5469169;26;19928;-73
2024/04/08 10:20:04;;;;;;;;;;;;;;;22.43;51.21;100541.66;5499952;26;20000;-73
2024/04/08 10:22:29;;;;;;;;;;;;;;;22.76;49.80;100529.09;5484256;26;19928;-73
2024/04/08 10:24:55;;;;;;;;;;;;;;;21.94;54.15;100514.75;5495391;25;20240;-73
2024/04/08 10:27:24;;;;;;;;;;;;;;;22.55;51.36;100523.75;5491080;26;19977;-72
2024/04/08 10:29:55;;;;;;;;;;;;;;;23.73;47.83;100529.19;5499311;25;19995;-72
2024/04/08 10:32:20;;;;;;;;;;;;;;;23.28;47.53;100525.88;5497215;25;19935;-73
2024/04/08 10:34:45;;;;;;;;;;;;;;;23.32;48.75;100524.16;5479995;26;20018;-73
2024/04/08 10:37:10;;;;;;;;;;;;;;;23.25;49.58;100510.78;5502646;26;19935;-73
2024/04/08 10:39:36;;;;;;;;;;;;;;;23.54;49.76;100509.09;5499489;26;19928;-73
2024/04/08 10:42:10;;;;;;;;;;;;;;;23.07;50.75;100508.75;5504457;25;20362;-72
2024/04/08 10:44:36;;;;;;;;;;;;;;;23.17;48.98;100503.16;5496867;25;19943;-73
2024/04/08 10:47:01;;;;;;;;;;;;;;;23.58;47.53;100508.22;5480990;25;20274;-73
2024/04/08 10:49:26;;;;;;;;;;;;;;;24.45;46.29;100512.84;5484572;26;19939;-73
2024/04/08 10:51:51;;;;;;;;;;;;;;;25.19;43.05;100512.16;5502596;26;19928;-72
2024/04/08 10:54:18;;;;;;;;;;;;;;;24.02;46.67;100520.03;5463692;26;19939;-73
2024/04/08 10:56:43;;;;;;;;;;;;;;;24.93;45.29;100518.13;5481581;26;19940;-73
2024/04/08 10:59:08;;;;;;;;;;;;;;;25.85;42.93;100517.47;5474756;26;19996;-72
2024/04/08 11:01:34;;;;;;;;;;;;;;;24.90;46.98;100504.94;5488127;26;19944;-73
2024/04/08 11:03:59;;;;;;;;;;;;;;;25.77;42.39;100504.41;5487560;26;19935;-73
2024/04/08 11:06:24;;;;;;;;;;;;;;;25.58;42.61;100510.03;5464659;26;20438;-72
2024/04/08 11:08:50;;;;;;;;;;;;;;;25.19;44.79;100511.31;5483525;26;19928;-72
2024/04/08 11:11:15;;;;;;;;;;;;;;;25.82;42.73;100507.06;5488872;26;19928;-73
2024/04/08 11:13:41;;;;;;;;;;;;;;;26.78;40.29;100512.56;5487349;26;19996;-71
2024/04/08 11:16:07;;;;;;;;;;;;;;;27.67;36.70;100516.56;5480019;26;19928;-73
2024/04/08 11:18:38;;;;;;;;;;;;;;;26.86;38.38;100508.25;5482394;26;19928;-71
2024/04/08 11:21:04;;;;;;;;;;;;;;;26.87;39.13;100500.78;5498753;26;19968;-72
2024/04/08 11:23:29;;;;;;;;;;;;;;;27.73;38.15;100520.00;5490903;26;19928;-72
2024/04/08 11:26:04;;;;;;;;;;;;;;;27.78;37.29;100517.09;5466377;26;20446;-72
2024/04/08 11:28:29;;;;;;;;;;;;;;;26.46;39.56;100508.94;5466184;26;19936;-73
2024/04/08 11:30:54;;;;;;;;;;;;;;;26.06;40.39;100505.16;5487504;26;19935;-73
2024/04/08 11:33:20;;;;;;;;;;;;;;;26.31;40.20;100501.00;5488635;26;19935;-73
2024/04/08 11:35:45;;;;;;;;;;;;;;;25.65;41.99;100501.34;5483036;26;19932;-73
2024/04/08 11:38:16;;;;;;;;;;;;;;;25.26;42.06;100493.25;5486719;26;19985;-73
2024/04/08 11:40:41;;;;;;;;;;;;;;;24.64;44.24;100483.34;5468505;26;19940;-73
2024/04/08 11:43:07;;;;;;;;;;;;;;;24.67;44.31;100488.25;5484228;26;19939;-72
2024/04/08 11:45:32;;;;;;;;;;;;;;;24.17;45.75;100483.28;5474526;26;19935;-72
2024/04/08 11:47:57;;;;;;;;;;;;;;;24.62;44.03;100480.09;5454761;26;19974;-74
2024/04/08 11:50:22;;;;;;;;;;;;;;;24.10;44.88;100479.25;5472617;26;19993;-72
2024/04/08 11:52:48;;;;;;;;;;;;;;;23.87;46.70;100473.50;5486083;26;19946;-72
2024/04/08 11:55:13;;;;;;;;;;;;;;;24.91;43.39;100476.28;5489419;26;19928;-72
2024/04/08 11:57:38;;;;;;;;;;;;;;;24.01;45.33;100476.38;5487061;26;20260;-72
2024/04/08 12:00:04;;;;;;;;;;;;;;;22.79;48.61;100476.34;5464331;26;19928;-72
2024/04/08 12:02:29;;;;;;;;;;;;;;;22.61;50.94;100466.91;5475177;26;19928;-72
2024/04/08 12:04:55;;;;;;;;;;;;;;;22.63;49.92;100450.97;5472533;26;19960;-72
2024/04/08 12:07:20;;;;;;;;;;;;;;;22.33;52.04;100449.28;5483628;26;19928;-73
2024/04/08 12:09:45;;;;;;;;;;;;;;;22.02;53.80;100464.03;5488903;26;19928;-73
2024/04/08 12:12:13;;;;;;;;;;;;;;;21.96;53.44;100481.63;5463257;26;19935;-73
2024/04/08 12:14:38;;;;;;;;;;;;;;;21.55;55.41;100474.34;5500437;26;19936;-74
2024/04/08 12:17:03;;;;;;;;;;;;;;;21.58;55.32;100462.03;5483269;26;19940;-73
2024/04/08 12:19:29;;;;;;;;;;;;;;;21.21;57.35;100469.56;5501450;26;19928;-73
2024/04/08 12:21:54;;;;;;;;;;;;;;;20.95;56.82;100475.09;5500787;26;19928;-73
2024/04/08 12:24:19;;;;;;;;;;;;;;;20.73;58.03;100464.44;5493790;26;19938;-73